Time;durP1;ratioP1;P1;durP2;ratioP2;P2;SDS_P1;SDS_P2;PMS_P1;PMS_P2;Temp;Humidity;BMP_temperature;BMP_pressure;BME280_temperature;BME280_humidity;BME280_pressure;Samples;Min_cycle;Max_cycle;Signal;HPM_P1;HPM_P2
2022/07/29 00:00:59;;;;;;;7.25;1.70;;;19.30;56.10;;;;;;5003819;28;20076;-78
2022/07/29 00:03:25;;;;;;;5.25;1.50;;;19.30;55.00;;;;;;5021478;28;20026;-78
2022/07/29 00:05:52;;;;;;;8.77;1.80;;;19.30;55.50;;;;;;4967412;28;20041;-78
2022/07/29 00:08:18;;;;;;;5.40;1.42;;;19.30;55.30;;;;;;4962717;28;20026;-78
2022/07/29 00:10:43;;;;;;;5.07;1.50;;;19.20;55.80;;;;;;4991786;28;20441;-77
2022/07/29 00:13:09;;;;;;;4.72;1.50;;;19.20;55.40;;;;;;4975830;28;20026;-78
2022/07/29 00:15:35;;;;;;;7.38;1.40;;;19.20;56.40;;;;;;4994398;28;20518;-78
2022/07/29 00:18:00;;;;;;;5.05;1.20;;;19.20;56.50;;;;;;5019392;28;20042;-78
2022/07/29 00:20:26;;;;;;;4.85;1.50;;;19.10;56.00;;;;;;4979512;28;20034;-78
2022/07/29 00:22:51;;;;;;;6.88;1.10;;;19.20;55.90;;;;;;5006423;28;20022;-78
2022/07/29 00:25:17;;;;;;;6.90;2.10;;;19.10;55.90;;;;;;5004979;28;20150;-78
2022/07/29 00:27:43;;;;;;;7.57;1.35;;;19.10;56.40;;;;;;4973559;28;20026;-78
2022/07/29 00:30:08;;;;;;;2.67;1.13;;;19.00;56.00;;;;;;4980782;28;20041;-78
2022/07/29 00:32:34;;;;;;;5.03;1.25;;;19.00;57.00;;;;;;4995785;28;20216;-78
2022/07/29 00:37:44;;;;;;;2.28;1.10;;;18.90;56.20;;;;;;5014742;28;20149;-78
2022/07/29 00:40:09;;;;;;;5.68;1.33;;;18.90;57.10;;;;;;4975788;28;20118;-78
2022/07/29 00:42:45;;;;;;;3.30;1.67;;;18.80;56.40;;;;;;4990408;28;20187;-78
2022/07/29 00:45:11;;;;;;;;;;;18.80;58.00;;;;;;4987708;28;20397;-78
2022/07/29 00:47:36;;;;;;;4.33;1.13;;;18.70;56.80;;;;;;5004701;28;19918;-78
2022/07/29 00:50:04;;;;;;;4.38;2.05;;;18.70;56.70;;;;;;4993503;28;20034;-78
2022/07/29 00:52:29;;;;;;;3.75;1.30;;;18.60;56.50;;;;;;5002436;28;20458;-77
2022/07/29 00:54:55;;;;;;;7.35;1.23;;;18.70;56.50;;;;;;5007591;28;20493;-78
2022/07/29 00:57:20;;;;;;;5.95;1.33;;;18.70;57.50;;;;;;4987262;28;20489;-78
2022/07/29 00:59:46;;;;;;;7.88;1.48;;;18.70;56.70;;;;;;4982472;28;20033;-78
2022/07/29 01:02:11;;;;;;;6.63;1.73;;;18.60;56.50;;;;;;5001037;28;20038;-78
2022/07/29 01:04:37;;;;;;;4.07;1.13;;;18.60;56.60;;;;;;4995810;28;20033;-78
2022/07/29 01:07:02;;;;;;;7.85;1.70;;;18.50;56.80;;;;;;4994620;28;20022;-78
2022/07/29 01:09:28;;;;;;;6.13;1.30;;;18.50;56.70;;;;;;4977301;28;20121;-78
2022/07/29 01:11:54;;;;;;;3.35;1.75;;;18.50;57.10;;;;;;4969885;28;20046;-78
2022/07/29 01:14:19;;;;;;;4.13;1.15;;;18.50;58.60;;;;;;4980181;28;20046;-78
2022/07/29 01:17:01;;;;;;;4.07;1.40;;;18.40;57.30;;;;;;4961410;28;20030;-78
2022/07/29 01:19:45;;;;;;;5.40;1.30;;;18.40;57.50;;;;;;5000969;28;20382;-78
2022/07/29 01:22:41;;;;;;;5.70;1.27;;;18.30;57.30;;;;;;5007408;28;20026;-78
2022/07/29 01:25:31;;;;;;;7.38;1.42;;;18.30;58.00;;;;;;5003178;28;20034;-78
2022/07/29 01:28:00;;;;;;;3.42;1.20;;;18.30;57.60;;;;;;5001409;28;20041;-77
2022/07/29 01:30:25;;;;;;;6.50;1.38;;;18.20;57.80;;;;;;5005030;28;20111;-78
2022/07/29 01:32:58;;;;;;;5.03;1.20;;;18.30;57.70;;;;;;4994008;28;20538;-78
2022/07/29 01:35:25;;;;;;;2.67;1.20;;;18.30;58.00;;;;;;4998583;28;20034;-77
2022/07/29 01:37:52;;;;;;;4.72;1.33;;;18.30;57.70;;;;;;4995380;28;20034;-77
2022/07/29 01:40:23;;;;;;;4.53;1.23;;;18.20;58.50;;;;;;4980372;28;20080;-77
2022/07/29 01:42:51;;;;;;;2.85;1.38;;;18.10;57.90;;;;;;4991259;28;20127;-77
2022/07/29 01:45:23;;;;;;;7.80;1.90;;;18.30;58.00;;;;;;4979277;28;20193;-77
2022/07/29 01:48:06;;;;;;;2.83;1.35;;;18.20;57.10;;;;;;4981019;28;20571;-78
2022/07/29 01:51:00;;;;;;;4.38;1.13;;;18.10;58.30;;;;;;5004926;28;20538;-78
2022/07/29 01:53:32;;;;;;;6.25;1.55;;;18.10;57.90;;;;;;4972145;28;20029;-77
2022/07/29 01:55:57;;;;;;;5.18;1.20;;;18.00;57.70;;;;;;4968130;28;20030;-78
2022/07/29 01:58:23;;;;;;;3.25;1.38;;;18.10;57.90;;;;;;4980847;28;20029;-77
2022/07/29 02:00:48;;;;;;;3.35;1.48;;;18.00;58.50;;;;;;4955760;28;20027;-77
2022/07/29 02:03:14;;;;;;;4.97;1.42;;;18.00;57.70;;;;;;4998982;28;20499;-77
2022/07/29 02:05:40;;;;;;;3.58;1.58;;;18.00;57.50;;;;;;4987324;28;20032;-77
2022/07/29 02:08:06;;;;;;;7.10;1.50;;;18.00;57.50;;;;;;5000082;28;20639;-77
2022/07/29 02:10:33;;;;;;;3.40;1.50;;;18.00;58.10;;;;;;4971047;28;20057;-77
2022/07/29 02:12:58;;;;;;;3.22;1.30;;;17.90;58.20;;;;;;4984288;28;20034;-77
2022/07/29 02:15:24;;;;;;;5.53;1.70;;;17.90;58.80;;;;;;4982096;28;20051;-78
2022/07/29 02:18:07;;;;;;;7.18;1.48;;;17.90;58.00;;;;;;4980070;28;20058;-77
2022/07/29 02:20:32;;;;;;;6.07;1.65;;;17.80;58.10;;;;;;4994732;28;20037;-78
2022/07/29 02:22:58;;;;;;;3.97;1.42;;;17.80;58.10;;;;;;5010773;28;20044;-78
2022/07/29 02:25:24;;;;;;;5.18;1.58;;;17.80;60.40;;;;;;4996057;28;20561;-77
2022/07/29 02:27:50;;;;;;;5.13;1.73;;;17.80;59.00;;;;;;4999542;28;20034;-77
2022/07/29 02:30:16;;;;;;;5.80;2.03;;;17.90;59.00;;;;;;4979017;28;20034;-77
2022/07/29 02:32:41;;;;;;;4.13;1.60;;;17.80;59.00;;;;;;4999545;28;20031;-77
2022/07/29 02:35:08;;;;;;;7.45;1.67;;;17.70;60.00;;;;;;4996161;28;20520;-77
2022/07/29 02:37:34;;;;;;;6.43;1.73;;;17.70;59.70;;;;;;5001030;28;20026;-77
2022/07/29 02:40:00;;;;;;;3.58;1.50;;;17.80;60.70;;;;;;4983274;28;20026;-77
2022/07/29 02:42:26;;;;;;;4.53;1.60;;;17.70;60.00;;;;;;4966901;28;20036;-77
2022/07/29 02:44:52;;;;;;;5.38;1.83;;;17.70;59.90;;;;;;5008366;28;20545;-77
2022/07/29 02:47:24;;;;;;;10.10;1.40;;;17.90;58.40;;;;;;4996087;28;20034;-77
2022/07/29 02:50:11;;;;;;;8.65;2.25;;;17.80;57.60;;;;;;4989704;28;20030;-77
2022/07/29 02:53:00;;;;;;;5.97;2.00;;;17.70;58.40;;;;;;4997964;28;20102;-77
2022/07/29 02:55:29;;;;;;;7.07;1.90;;;17.70;58.40;;;;;;4990416;28;20026;-77
2022/07/29 02:58:01;;;;;;;7.22;1.60;;;17.60;61.10;;;;;;5026240;28;20037;-77
2022/07/29 03:00:28;;;;;;;5.20;1.40;;;17.60;60.20;;;;;;4993907;28;20110;-77
2022/07/29 03:02:54;;;;;;;5.85;2.03;;;17.60;59.10;;;;;;5000100;28;20029;-77
2022/07/29 03:05:20;;;;;;;4.70;1.48;;;17.60;58.90;;;;;;4978082;28;20029;-77
2022/07/29 03:08:08;;;;;;;3.30;1.35;;;17.60;59.80;;;;;;4972972;28;20035;-77
2022/07/29 03:10:33;;;;;;;2.92;1.55;;;17.60;59.50;;;;;;4997379;28;20045;-77
2022/07/29 03:12:59;;;;;;;5.53;1.73;;;17.60;60.00;;;;;;4968684;28;20034;-77
2022/07/29 03:15:24;;;;;;;2.80;1.48;;;17.60;59.10;;;;;;4957385;28;20082;-77
2022/07/29 03:17:50;;;;;;;4.55;1.38;;;17.60;59.60;;;;;;5006319;28;20030;-77
2022/07/29 03:20:16;;;;;;;4.57;1.60;;;17.50;59.40;;;;;;4977285;28;20030;-77
2022/07/29 03:22:48;;;;;;;5.13;1.55;;;17.50;59.90;;;;;;5001222;28;20069;-77
2022/07/29 03:25:14;;;;;;;6.32;1.63;;;17.60;60.90;;;;;;5020371;28;20460;-77
2022/07/29 03:27:40;;;;;;;2.92;1.50;;;17.70;62.10;;;;;;5003599;28;20030;-77
2022/07/29 03:30:07;;;;;;;7.35;1.92;;;17.60;61.10;;;;;;4980640;28;20034;-77
2022/07/29 03:32:32;;;;;;;6.70;1.52;;;17.60;61.20;;;;;;4993841;28;20026;-77
2022/07/29 03:34:58;;;;;;;12.15;2.65;;;17.60;62.70;;;;;;4993333;28;20509;-77
2022/07/29 03:37:23;;;;;;;9.15;1.60;;;17.50;61.10;;;;;;5007288;28;20040;-77
2022/07/29 03:39:49;;;;;;;12.63;2.00;;;17.30;63.00;;;;;;4987942;28;20117;-77
2022/07/29 03:42:15;;;;;;;3.75;1.48;;;17.50;63.10;;;;;;5003200;28;20496;-77
2022/07/29 03:44:42;;;;;;;8.48;1.70;;;17.60;61.30;;;;;;4995859;28;20025;-77
2022/07/29 03:47:08;;;;;;;5.72;1.50;;;17.60;62.40;;;;;;4977883;28;20438;-77
2022/07/29 03:49:33;;;;;;;8.70;2.08;;;17.50;62.70;;;;;;4995968;28;20033;-77
2022/07/29 03:51:59;;;;;;;3.50;1.20;;;17.40;62.10;;;;;;4999133;28;20561;-77
2022/07/29 03:54:24;;;;;;;12.07;1.77;;;17.50;62.30;;;;;;4984522;28;20060;-77
2022/07/29 03:56:50;;;;;;;5.95;1.50;;;17.70;61.10;;;;;;4978637;28;20045;-77
2022/07/29 03:59:16;;;;;;;8.30;1.73;;;17.80;60.60;;;;;;5003158;28;20061;-77
2022/07/29 04:01:42;;;;;;;3.67;1.63;;;17.70;60.50;;;;;;5004643;28;20026;-77
2022/07/29 04:04:07;;;;;;;3.50;1.27;;;17.60;63.50;;;;;;4959474;28;20536;-77
2022/07/29 04:06:51;;;;;;;4.03;1.42;;;17.70;61.60;;;;;;4986506;28;20061;-77
2022/07/29 04:09:16;;;;;;;4.63;1.73;;;17.70;63.60;;;;;;5000488;28;20045;-76
2022/07/29 04:11:42;;;;;;;6.00;1.45;;;17.60;61.80;;;;;;5003606;28;20108;-76
2022/07/29 04:14:08;;;;;;;2.25;1.08;;;17.70;62.00;;;;;;5012694;28;20116;-76
2022/07/29 04:16:33;;;;;;;2.58;1.25;;;17.80;61.00;;;;;;4980112;28;20038;-77
2022/07/29 04:18:59;;;;;;;4.22;1.50;;;17.80;60.80;;;;;;4953607;28;20069;-76
2022/07/29 04:21:24;;;;;;;6.53;1.42;;;17.70;65.40;;;;;;5000733;28;20084;-77
2022/07/29 04:23:50;;;;;;;4.93;1.42;;;17.60;62.20;;;;;;4996426;28;20030;-77
2022/07/29 04:26:19;;;;;;;8.95;1.63;;;17.60;62.50;;;;;;4981013;28;20045;-76
2022/07/29 04:28:44;;;;;;;3.17;1.10;;;17.40;64.30;;;;;;5001460;28;20030;-77
2022/07/29 04:31:10;;;;;;;3.00;1.60;;;17.40;63.00;;;;;;4975811;28;20490;-77
2022/07/29 04:33:36;;;;;;;4.63;1.27;;;17.40;62.90;;;;;;5006366;28;20088;-77
2022/07/29 04:36:01;;;;;;;3.13;1.30;;;17.40;64.00;;;;;;4984792;28;20078;-77
2022/07/29 04:38:27;;;;;;;4.80;1.45;;;17.40;62.80;;;;;;5007516;28;20037;-76
2022/07/29 04:40:53;;;;;;;4.28;1.30;;;17.40;63.20;;;;;;4960131;28;20064;-76
2022/07/29 04:43:18;;;;;;;2.30;1.20;;;17.40;64.00;;;;;;4991048;28;20038;-76
2022/07/29 04:45:44;;;;;;;6.00;1.00;;;17.20;63.70;;;;;;5004951;28;20065;-77
2022/07/29 04:48:09;;;;;;;3.50;1.48;;;17.30;64.80;;;;;;4990815;28;20030;-76
2022/07/29 04:50:38;;;;;;;2.75;1.45;;;17.30;64.70;;;;;;5014922;28;20103;-76
2022/07/29 04:53:03;;;;;;;7.25;1.70;;;17.20;64.50;;;;;;5005290;28;20485;-76
2022/07/29 04:55:29;;;;;;;4.70;1.42;;;17.20;65.40;;;;;;5000400;28;20077;-77
2022/07/29 04:57:54;;;;;;;6.35;1.70;;;17.20;65.80;;;;;;4974034;28;20033;-77
2022/07/29 05:00:20;;;;;;;6.10;1.58;;;17.30;65.00;;;;;;4991025;28;20035;-77
2022/07/29 05:02:45;;;;;;;2.78;1.10;;;17.20;65.20;;;;;;4963922;28;20093;-77
2022/07/29 05:05:11;;;;;;;8.75;1.70;;;17.30;65.30;;;;;;5022463;28;20026;-77
2022/07/29 05:07:36;;;;;;;9.23;1.67;;;17.30;64.60;;;;;;5001461;28;20551;-77
2022/07/29 05:10:02;;;;;;;7.43;1.30;;;17.30;64.80;;;;;;4965587;28;20037;-76
2022/07/29 05:12:28;;;;;;;9.25;1.60;;;17.40;64.10;;;;;;4958686;28;20441;-77
2022/07/29 05:14:54;;;;;;;9.63;1.50;;;17.50;64.00;;;;;;4975788;28;20355;-76
2022/07/29 05:17:19;;;;;;;4.53;1.38;;;17.40;63.70;;;;;;5005722;28;20038;-76
2022/07/29 05:19:45;;;;;;;4.63;1.35;;;17.50;64.10;;;;;;4972635;28;20550;-76
2022/07/29 05:22:11;;;;;;;4.53;1.30;;;17.50;64.60;;;;;;5000636;28;20662;-76
2022/07/29 05:24:37;;;;;;;6.25;1.58;;;17.50;63.20;;;;;;5002211;28;20048;-76
2022/07/29 05:27:02;;;;;;;6.47;1.20;;;17.40;64.40;;;;;;5000033;28;20165;-76
2022/07/29 05:29:28;;;;;;;4.60;1.60;;;17.40;64.60;;;;;;4999423;28;20106;-76
2022/07/29 05:31:53;;;;;;;7.35;1.40;;;17.50;64.90;;;;;;4998871;28;20056;-76
2022/07/29 05:34:19;;;;;;;7.20;1.60;;;17.50;65.30;;;;;;4999924;28;20224;-76
2022/07/29 05:36:45;;;;;;;4.30;1.50;;;17.50;64.50;;;;;;5018285;28;20030;-76
2022/07/29 05:39:12;;;;;;;2.65;1.33;;;17.50;65.10;;;;;;4978789;28;20109;-76
2022/07/29 05:41:38;;;;;;;2.92;1.35;;;17.60;64.90;;;;;;4999735;28;20030;-77
2022/07/29 05:44:03;;;;;;;3.03;1.35;;;17.60;64.40;;;;;;5008074;28;20045;-77
2022/07/29 05:46:29;;;;;;;4.13;1.95;;;17.60;64.90;;;;;;4967500;28;20402;-77
2022/07/29 05:48:55;;;;;;;5.78;1.95;;;17.60;65.10;;;;;;4999889;28;20635;-76
2022/07/29 05:51:20;;;;;;;3.90;1.80;;;17.60;67.00;;;;;;4981845;28;20496;-76
2022/07/29 05:53:46;;;;;;;5.20;2.17;;;17.70;65.40;;;;;;5021317;28;20485;-77
2022/07/29 05:56:11;;;;;;;5.65;1.77;;;17.70;65.00;;;;;;4995213;28;20577;-77
2022/07/29 05:58:37;;;;;;;11.45;2.35;;;17.70;66.10;;;;;;5007792;28;20041;-76
2022/07/29 06:01:03;;;;;;;8.75;1.90;;;17.70;66.50;;;;;;4985489;28;20125;-76
2022/07/29 06:03:31;;;;;;;4.78;1.80;;;17.70;67.30;;;;;;5008119;28;20060;-76
2022/07/29 06:05:56;;;;;;;14.38;3.50;;;17.70;66.80;;;;;;4982648;28;20125;-77
2022/07/29 06:08:22;;;;;;;8.32;1.58;;;17.80;67.00;;;;;;5003488;28;20112;-77
2022/07/29 06:10:48;;;;;;;3.60;1.45;;;17.90;66.20;;;;;;5007176;28;20026;-76
2022/07/29 06:13:15;;;;;;;5.43;1.73;;;17.90;66.30;;;;;;4980366;28;20553;-76
2022/07/29 06:15:41;;;;;;;5.45;1.75;;;17.90;65.90;;;;;;4963906;28;20041;-77
2022/07/29 06:18:09;;;;;;;4.15;1.90;;;17.90;66.20;;;;;;4959575;28;20034;-76
2022/07/29 06:20:34;;;;;;;6.65;1.85;;;18.00;66.50;;;;;;5010787;28;20030;-76
2022/07/29 06:23:00;;;;;;;6.82;1.95;;;18.00;66.00;;;;;;4992506;28;20410;-77
2022/07/29 06:25:27;;;;;;;5.38;3.00;;;18.00;66.50;;;;;;4980907;28;20088;-76
2022/07/29 06:27:52;;;;;;;9.82;5.22;;;18.10;66.40;;;;;;4968056;28;20046;-76
2022/07/29 06:30:18;;;;;;;9.15;5.07;;;18.10;66.30;;;;;;5006437;28;20037;-76
2022/07/29 06:32:43;;;;;;;13.00;4.55;;;18.10;66.10;;;;;;5009780;28;21950;-77
2022/07/29 06:35:09;;;;;;;5.22;3.78;;;18.20;66.00;;;;;;5003666;28;20453;-76
2022/07/29 06:37:34;;;;;;;14.55;2.70;;;18.20;65.70;;;;;;4981736;28;20037;-76
2022/07/29 06:42:44;;;;;;;3.78;2.63;;;18.30;65.40;;;;;;4992260;28;20091;-76
2022/07/29 06:45:11;;;;;;;6.75;2.35;;;18.30;65.80;;;;;;4974245;28;20065;-76
2022/07/29 06:47:36;;;;;;;10.80;2.70;;;18.30;65.10;;;;;;5000403;28;20023;-76
2022/07/29 06:50:02;;;;;;;7.95;2.05;;;18.30;66.50;;;;;;4973976;28;20088;-76
2022/07/29 06:52:27;;;;;;;4.35;2.20;;;18.40;66.50;;;;;;4991565;28;20426;-77
2022/07/29 06:54:54;;;;;;;10.73;2.33;;;18.50;66.70;;;;;;4993395;28;20034;-77
2022/07/29 06:57:20;;;;;;;7.03;1.80;;;18.60;68.40;;;;;;5005057;28;20113;-77
2022/07/29 06:59:46;;;;;;;6.63;2.03;;;18.70;65.90;;;;;;4964744;28;20558;-76
2022/07/29 07:02:11;;;;;;;6.50;2.17;;;18.90;67.60;;;;;;4990309;28;20429;-76
2022/07/29 07:04:37;;;;;;;7.40;2.00;;;19.10;67.20;;;;;;5001414;28;20408;-76
2022/07/29 07:07:02;;;;;;;4.55;2.58;;;19.20;65.80;;;;;;4984013;28;20056;-77
2022/07/29 07:09:28;;;;;;;5.53;1.85;;;19.40;66.40;;;;;;4982761;28;20518;-77
2022/07/29 07:11:54;;;;;;;2.60;1.98;;;19.60;65.90;;;;;;4979422;28;20035;-76
2022/07/29 07:14:19;;;;;;;2.80;1.67;;;19.70;66.50;;;;;;4980324;28;20126;-77
2022/07/29 07:16:45;;;;;;;5.10;1.83;;;19.90;66.10;;;;;;5003691;28;20134;-77
2022/07/29 07:19:10;;;;;;;5.32;1.70;;;20.10;65.20;;;;;;4965232;28;20037;-77
2022/07/29 07:21:36;;;;;;;4.97;1.60;;;20.10;64.50;;;;;;4983326;28;20497;-77
2022/07/29 07:24:01;;;;;;;5.90;1.70;;;20.20;64.50;;;;;;5032465;28;20117;-76
2022/07/29 07:26:27;;;;;;;3.22;1.60;;;20.30;64.70;;;;;;4977049;28;20041;-77
2022/07/29 07:28:52;;;;;;;1.90;1.60;;;20.30;63.00;;;;;;4977337;28;20044;-77
2022/07/29 07:31:18;;;;;;;7.28;1.88;;;20.40;63.70;;;;;;4974698;28;20367;-77
2022/07/29 07:33:44;;;;;;;4.05;1.60;;;20.40;61.80;;;;;;5004989;28;20030;-77
2022/07/29 07:36:09;;;;;;;2.58;1.73;;;20.40;63.00;;;;;;4999208;28;20021;-77
2022/07/29 07:38:35;;;;;;;4.85;2.00;;;20.50;61.90;;;;;;5007597;28;20486;-77
2022/07/29 07:41:00;;;;;;;4.82;1.95;;;20.60;64.10;;;;;;4980706;28;20061;-77
2022/07/29 07:43:26;;;;;;;2.72;1.33;;;20.80;63.70;;;;;;4985149;28;20133;-77
2022/07/29 07:45:51;;;;;;;4.80;1.48;;;20.80;62.50;;;;;;5015945;28;20425;-77
2022/07/29 07:48:17;;;;;;;2.03;1.33;;;20.90;63.60;;;;;;5003331;28;20413;-77
2022/07/29 07:50:43;;;;;;;6.75;1.45;;;21.00;63.00;;;;;;4992828;28;20395;-77
2022/07/29 07:53:09;;;;;;;4.88;2.10;;;21.10;63.60;;;;;;4973468;28;20035;-77
2022/07/29 07:55:40;;;;;;;6.32;2.22;;;21.10;63.40;;;;;;4970917;28;20041;-77
2022/07/29 07:58:06;;;;;;;7.80;1.40;;;21.20;63.40;;;;;;4997491;28;20069;-77
2022/07/29 08:00:32;;;;;;;8.00;1.95;;;21.20;63.30;;;;;;4996442;28;20022;-77
2022/07/29 08:02:58;;;;;;;5.07;1.38;;;21.30;62.80;;;;;;4976051;28;20053;-77
2022/07/29 08:05:23;;;;;;;3.10;1.80;;;21.30;63.20;;;;;;4990065;28;20502;-77
2022/07/29 08:07:49;;;;;;;5.40;2.38;;;21.40;63.90;;;;;;4969888;28;20037;-77
2022/07/29 08:10:51;;;;;;;4.63;1.80;;;21.60;63.20;;;;;;4993078;28;20045;-77
2022/07/29 08:13:05;;;;;;;7.68;2.15;;;21.70;62.70;;;;;;4987710;28;20031;-77
2022/07/29 08:15:31;;;;;;;3.47;1.52;;;21.80;62.70;;;;;;4972130;28;20026;-77
2022/07/29 08:17:56;;;;;;;6.20;1.90;;;21.80;62.40;;;;;;5004265;28;20498;-77
2022/07/29 08:20:22;;;;;;;6.45;1.80;;;22.00;62.50;;;;;;4986441;28;20038;-77
2022/07/29 08:22:48;;;;;;;2.30;1.60;;;22.00;62.10;;;;;;5001791;28;20101;-77
2022/07/29 08:25:13;;;;;;;5.63;1.80;;;22.10;62.20;;;;;;5013138;28;20038;-77
2022/07/29 08:27:39;;;;;;;9.82;2.40;;;22.20;62.30;;;;;;4972720;28;20076;-77
2022/07/29 08:30:05;;;;;;;6.85;2.53;;;22.20;62.20;;;;;;5013752;28;20405;-77
2022/07/29 08:32:31;;;;;;;7.90;2.72;;;22.30;63.10;;;;;;5007346;28;20034;-77
2022/07/29 08:34:56;;;;;;;10.20;3.03;;;22.20;64.80;;;;;;4981990;28;20053;-77
2022/07/29 08:37:22;;;;;;;8.20;2.80;;;22.00;64.10;;;;;;4999287;28;20030;-77
2022/07/29 08:39:48;;;;;;;4.43;2.50;;;21.90;63.80;;;;;;5012391;28;20029;-77
2022/07/29 08:42:13;;;;;;;4.95;2.50;;;21.80;64.30;;;;;;5009852;28;20472;-77
2022/07/29 08:44:39;;;;;;;6.15;2.90;;;21.70;64.50;;;;;;5009167;28;20041;-77
2022/07/29 08:47:04;;;;;;;9.35;2.25;;;21.60;65.00;;;;;;5007438;28;20037;-77
2022/07/29 08:49:32;;;;;;;7.95;2.65;;;21.50;65.30;;;;;;4976896;28;20057;-77
2022/07/29 08:51:58;;;;;;;3.28;1.98;;;21.50;65.70;;;;;;4997418;28;20038;-76
2022/07/29 08:54:23;;;;;;;7.38;2.20;;;21.40;66.40;;;;;;4965041;28;20034;-79
2022/07/29 08:56:50;;;;;;;5.45;2.25;;;21.30;66.30;;;;;;4957437;28;20025;-76
2022/07/29 08:59:15;;;;;;;7.80;2.20;;;21.30;66.10;;;;;;5005349;28;20179;-77
2022/07/29 09:01:42;;;;;;;14.05;3.03;;;21.20;66.40;;;;;;5003914;28;20122;-76
2022/07/29 09:04:11;;;;;;;8.82;2.72;;;21.20;67.60;;;;;;4999779;28;20117;-76
2022/07/29 09:06:37;;;;;;;8.32;2.55;;;21.10;67.60;;;;;;4996281;28;20391;-76
2022/07/29 09:09:03;;;;;;;4.63;2.10;;;21.10;66.60;;;;;;4969224;28;20030;-77
2022/07/29 09:11:29;;;;;;;6.28;3.35;;;21.10;66.50;;;;;;4973065;28;20045;-77
2022/07/29 09:13:55;;;;;;;6.55;2.17;;;21.00;67.40;;;;;;4989843;28;20029;-76
2022/07/29 09:16:20;;;;;;;6.75;1.92;;;21.00;65.50;;;;;;4959364;28;20506;-76
2022/07/29 09:18:46;;;;;;;8.32;3.08;;;21.00;67.20;;;;;;4960009;28;20046;-77
2022/07/29 09:24:01;;;;;;;7.18;2.92;;;21.00;67.60;;;;;;5002277;28;20448;-79
2022/07/29 09:26:38;;;;;;;6.05;3.38;;;20.90;68.00;;;;;;5007760;28;20560;-78
2022/07/29 09:29:17;;;;;;;10.73;3.28;;;20.90;68.80;;;;;;5002701;28;20173;-79
2022/07/29 09:31:45;;;;;;;9.82;3.50;;;20.80;70.30;;;;;;4977415;28;20026;-78
2022/07/29 09:34:11;;;;;;;7.85;3.92;;;20.60;70.30;;;;;;4987839;28;20045;-78
2022/07/29 09:36:39;;;;;;;9.90;4.55;;;20.40;69.60;;;;;;5005898;28;20486;-78
2022/07/29 09:39:05;;;;;;;11.20;4.95;;;20.30;69.30;;;;;;4982961;28;20038;-78
2022/07/29 09:41:30;;;;;;;10.88;3.90;;;20.10;72.60;;;;;;5002946;28;20105;-78
2022/07/29 09:43:59;;;;;;;9.15;4.45;;;20.10;73.90;;;;;;4974019;28;20037;-78
2022/07/29 09:46:25;;;;;;;8.90;4.28;;;20.00;73.10;;;;;;4981564;28;20108;-78
2022/07/29 09:49:09;;;;;;;8.88;3.90;;;19.90;72.40;;;;;;4974478;28;20077;-78
2022/07/29 09:51:34;;;;;;;12.23;3.33;;;19.90;73.50;;;;;;4996465;28;20428;-78
2022/07/29 09:54:03;;;;;;;11.10;3.83;;;19.80;74.80;;;;;;4998131;28;20609;-79
2022/07/29 09:56:41;;;;;;;7.00;3.40;;;19.80;75.30;;;;;;5009839;28;20025;-78
2022/07/29 09:59:08;;;;;;;10.27;3.85;;;19.70;74.00;;;;;;4966331;28;20073;-78
2022/07/29 10:01:34;;;;;;;9.25;3.95;;;19.80;75.40;;;;;;4992580;28;20117;-78
2022/07/29 10:03:59;;;;;;;9.48;3.08;;;19.80;74.90;;;;;;5004360;28;20030;-78
2022/07/29 10:06:25;;;;;;;10.95;4.05;;;19.90;74.00;;;;;;4967633;28;20030;-78
2022/07/29 10:08:52;;;;;;;7.97;3.20;;;20.00;74.10;;;;;;5000554;28;20034;-78
2022/07/29 10:11:18;;;;;;;8.63;3.17;;;20.00;73.20;;;;;;4979164;28;20030;-78
2022/07/29 10:13:45;;;;;;;6.18;3.55;;;20.10;73.30;;;;;;4973596;28;20030;-78
2022/07/29 10:16:11;;;;;;;8.90;3.70;;;20.20;73.10;;;;;;4976572;28;20573;-78
2022/07/29 10:18:38;;;;;;;12.57;3.67;;;20.30;73.40;;;;;;5000187;28;20102;-78
2022/07/29 10:21:03;;;;;;;6.95;2.72;;;20.30;73.00;;;;;;5005355;28;20058;-78
2022/07/29 10:23:29;;;;;;;10.43;3.28;;;20.50;73.30;;;;;;4976282;28;20045;-78
2022/07/29 10:25:55;;;;;;;13.65;4.50;;;20.60;74.20;;;;;;5005616;28;20034;-79
2022/07/29 10:28:20;;;;;;;9.25;3.15;;;20.80;73.40;;;;;;4980384;28;20030;-79
2022/07/29 10:30:46;;;;;;;4.57;3.03;;;20.90;72.70;;;;;;5013357;28;20383;-79
2022/07/29 10:33:36;;;;;;;10.85;3.20;;;21.00;72.50;;;;;;5025826;28;20046;-78
2022/07/29 10:36:20;;;;;;;6.05;2.13;;;21.20;72.20;;;;;;5006522;28;20049;-78
2022/07/29 10:38:58;;;;;;;3.17;2.25;;;21.30;71.60;;;;;;5007218;28;20032;-78
2022/07/29 10:41:45;;;;;;;8.82;3.42;;;21.40;71.50;;;;;;5011881;28;20122;-78
2022/07/29 10:44:24;;;;;;;8.57;3.35;;;21.50;71.40;;;;;;5001936;28;20034;-78
2022/07/29 10:46:50;;;;;;;11.73;3.22;;;21.60;70.80;;;;;;4961203;28;20125;-78
2022/07/29 10:49:17;;;;;;;6.55;3.10;;;21.70;71.00;;;;;;4976515;28;20502;-78
2022/07/29 10:52:09;;;;;;;8.18;2.78;;;21.80;70.90;;;;;;5004714;28;20485;-79
2022/07/29 10:54:38;;;;;;;6.22;2.88;;;21.80;70.60;;;;;;4981402;28;20026;-78
2022/07/29 10:57:15;;;;;;;7.25;2.70;;;21.90;70.40;;;;;;4998638;28;20034;-78
2022/07/29 10:59:45;;;;;;;6.45;2.90;;;21.90;70.80;;;;;;4992186;28;20375;-78
2022/07/29 11:02:39;;;;;;;8.13;3.00;;;22.00;70.30;;;;;;4996587;28;20145;-78
2022/07/29 11:05:14;;;;;;;9.10;2.90;;;22.10;70.10;;;;;;5021088;28;20497;-79
2022/07/29 11:08:11;;;;;;;6.22;2.40;;;22.30;70.20;;;;;;4997679;28;20343;-79
2022/07/29 11:10:37;;;;;;;7.18;3.17;;;22.40;69.90;;;;;;5029071;28;20582;-79
2022/07/29 11:13:03;;;;;;;7.43;2.80;;;22.60;70.40;;;;;;4995582;28;20023;-79
2022/07/29 11:15:30;;;;;;;10.77;4.15;;;22.80;70.60;;;;;;5000502;28;20422;-79
2022/07/29 11:17:56;;;;;;;5.32;3.10;;;23.10;70.40;;;;;;4978264;28;20029;-78
2022/07/29 11:20:41;;;;;;;5.55;2.63;;;23.40;70.00;;;;;;4991932;28;20034;-79
2022/07/29 11:23:39;;;;;;;6.40;3.13;;;23.70;69.90;;;;;;5007948;28;20060;-79
2022/07/29 11:26:21;;;;;;;5.35;3.10;;;24.00;69.70;;;;;;5011504;28;20310;-79
2022/07/29 11:29:06;;;;;;;8.10;3.95;;;24.30;69.30;;;;;;5010568;28;20462;-79
2022/07/29 11:31:34;;;;;;;10.18;3.72;;;24.70;68.40;;;;;;5005859;28;20041;-79
2022/07/29 11:34:23;;;;;;;8.95;2.67;;;24.90;67.60;;;;;;5000991;28;20030;-79
2022/07/29 11:37:10;;;;;;;8.90;3.78;;;25.10;66.20;;;;;;4996537;28;20451;-79
2022/07/29 11:39:46;;;;;;;9.25;4.22;;;25.30;66.10;;;;;;4989114;28;20142;-79
2022/07/29 11:42:23;;;;;;;7.10;3.97;;;25.50;65.40;;;;;;5006400;28;20034;-79
2022/07/29 11:45:05;;;;;;;10.82;3.83;;;25.90;65.00;;;;;;4992709;28;20041;-79
2022/07/29 11:47:32;;;;;;;12.82;3.60;;;26.10;63.70;;;;;;4998329;28;20418;-79
2022/07/29 11:49:58;;;;;;;6.22;2.17;;;26.30;61.40;;;;;;4994137;28;20038;-79
2022/07/29 11:52:31;;;;;;;8.10;2.90;;;26.40;62.20;;;;;;4977905;28;20569;-79
2022/07/29 11:54:57;;;;;;;7.47;3.13;;;26.70;61.30;;;;;;4991579;28;20025;-79
2022/07/29 11:57:23;;;;;;;6.85;3.40;;;26.90;60.20;;;;;;4983618;28;20495;-79
2022/07/29 11:59:48;;;;;;;4.68;2.65;;;27.20;58.70;;;;;;4995412;28;20029;-79
2022/07/29 12:02:14;;;;;;;5.30;2.70;;;27.20;59.10;;;;;;4994068;28;20030;-80
2022/07/29 12:04:53;;;;;;;6.65;2.75;;;27.40;58.80;;;;;;4994689;28;20037;-80
2022/07/29 12:07:19;;;;;;;7.03;2.92;;;27.50;58.30;;;;;;4977210;28;20505;-77
2022/07/29 12:09:51;;;;;;;9.25;3.00;;;27.70;57.30;;;;;;5003575;28;20557;-77
2022/07/29 12:12:17;;;;;;;7.10;2.58;;;27.70;56.40;;;;;;4984924;28;20074;-78
2022/07/29 12:14:45;;;;;;;8.48;3.20;;;27.90;57.00;;;;;;4962215;28;20058;-78
2022/07/29 12:17:26;;;;;;;6.15;3.00;;;28.00;56.10;;;;;;4975676;28;20026;-79
2022/07/29 12:19:51;;;;;;;4.20;2.10;;;28.00;56.50;;;;;;4974862;28;20429;-78
2022/07/29 12:22:28;;;;;;;17.05;3.13;;;28.20;56.30;;;;;;4972714;28;20065;-78
2022/07/29 12:24:54;;;;;;;6.72;3.10;;;28.60;55.80;;;;;;4961150;28;20394;-79
2022/07/29 12:27:20;;;;;;;8.25;3.03;;;28.90;55.40;;;;;;4979790;28;20037;-79
2022/07/29 12:29:56;;;;;;;6.43;3.42;;;28.90;55.40;;;;;;5005365;28;20033;-79
2022/07/29 12:32:22;;;;;;;7.93;2.50;;;29.30;53.00;;;;;;5004338;28;20092;-80
2022/07/29 12:34:47;;;;;;;6.78;1.70;;;29.30;53.50;;;;;;4979514;28;20483;-80
2022/07/29 12:37:13;;;;;;;11.02;3.42;;;29.50;53.10;;;;;;4980442;28;20125;-79
2022/07/29 12:39:39;;;;;;;5.70;2.45;;;29.60;53.70;;;;;;4979856;28;20050;-79
2022/07/29 12:42:12;;;;;;;9.15;2.85;;;29.80;52.50;;;;;;5015777;28;20038;-79
2022/07/29 12:44:47;;;;;;;5.65;2.35;;;30.00;52.20;;;;;;4979988;28;20339;-80
2022/07/29 12:47:13;;;;;;;5.95;2.50;;;30.00;51.70;;;;;;4979263;28;20093;-80
2022/07/29 12:49:38;;;;;;;6.95;3.60;;;30.10;51.90;;;;;;4975435;28;20517;-81
2022/07/29 12:52:23;;;;;;;6.45;1.60;;;30.30;51.70;;;;;;5007605;28;20173;-80
2022/07/29 12:54:48;;;;;;;8.35;2.45;;;30.30;51.90;;;;;;4994071;28;20084;-80
2022/07/29 12:57:14;;;;;;;4.70;2.65;;;30.40;51.80;;;;;;4998917;28;20701;-80
2022/07/29 12:59:39;;;;;;;5.85;2.88;;;30.40;52.10;;;;;;4968310;28;20057;-80